Terminal Aerodrome Forecast
Issued by NWS Midland/Odessa, TX

Home | Current Version | Previous Version | Text Only | Print | Product List | Glossary On
Versions: 1 2 3 4 5 6 7 8 9 10 11 12 13 14 15 16 17
000
FTUS44 KMAF 180500
TAFMAF
TAF
KMAF 180527Z 1806/1906 13006KT P6SM OVC130
      TEMPO 1806/1810 VRB15G25KT 6SM TSRA FEW035CB SCT050 OVC090
     FM181200 14007KT P6SM BKN025
     FM181700 12008KT P6SM BKN040
     FM190000 09011KT P6SM OVC035
     FM190400 12008KT P6SM OVC030=

USA.gov is the U.S. government's official web portal to all federal, state and local government web resources and services.